createdAt,value
2022-10-19T01:13:05.298Z,98538.47
2022-10-19T01:17:18.295Z,98538.66
2022-10-19T01:21:26.671Z,98539.50
2022-10-19T01:25:47.146Z,98534.03
2022-10-19T01:30:10.185Z,98531.75
2022-10-19T01:34:16.826Z,98542.19
2022-10-19T01:38:31.291Z,98526.97
2022-10-19T01:42:44.428Z,98541.59
2022-10-19T01:46:54.692Z,98533.84
2022-10-19T01:51:02.844Z,98543.94
2022-10-19T01:55:07.035Z,98536.78
2022-10-19T01:59:13.320Z,98530.22
2022-10-19T02:03:19.285Z,98528.75
2022-10-19T02:07:25.391Z,98531.56
2022-10-19T02:11:28.951Z,98529.31
2022-10-19T02:15:35.447Z,98532.28
2022-10-19T02:19:40.505Z,98528.88
2022-10-19T02:23:43.624Z,98521.50
2022-10-19T02:27:47.268Z,98519.22
2022-10-19T02:31:51.325Z,98515.16
2022-10-19T02:35:56.333Z,98513.66
2022-10-19T02:39:59.632Z,98516.69
2022-10-19T02:44:07.061Z,98527.56
2022-10-19T02:48:14.581Z,98521.66
2022-10-19T02:52:19.207Z,98514.13
2022-10-19T02:56:23.447Z,98524.03
2022-10-19T03:00:26.944Z,98507.72
2022-10-19T03:04:30.482Z,98506.28
2022-10-19T03:08:34.914Z,98500.38
2022-10-19T03:12:38.407Z,98504.19
2022-10-19T03:16:42.122Z,98500.72
2022-10-19T03:20:45.696Z,98499.28
2022-10-19T03:24:50.597Z,98502.72
2022-10-19T03:28:53.645Z,98503.69
2022-10-19T03:32:57.465Z,98494.19
2022-10-19T03:37:00.552Z,98499.44
2022-10-19T03:41:07.452Z,98506.34
2022-10-19T03:45:11.070Z,98493.53
2022-10-19T03:49:14.970Z,98499.81
2022-10-19T03:53:18.748Z,98495.72
2022-10-19T03:57:23.776Z,98501.16
2022-10-19T04:01:29.121Z,98509.22
2022-10-19T04:05:32.650Z,98504.16
2022-10-19T04:09:35.736Z,98494.63
2022-10-19T04:13:41.197Z,98497.25
2022-10-19T04:17:47.880Z,98492.97
2022-10-19T04:21:51.565Z,98490.34
2022-10-19T04:25:55.212Z,98487.69
2022-10-19T04:29:59.688Z,98482.25
2022-10-19T04:34:03.317Z,98485.72
2022-10-19T04:38:06.311Z,98484.09
2022-10-19T04:42:09.869Z,98479.00
2022-10-19T04:46:15.887Z,98473.28
2022-10-19T04:50:18.835Z,98469.38
2022-10-19T04:54:22.371Z,98465.09
2022-10-19T04:58:25.894Z,98472.34
2022-10-19T05:02:30.986Z,98472.34
2022-10-19T05:06:34.085Z,98463.84
2022-10-19T05:10:37.764Z,98462.84
2022-10-19T05:14:42.891Z,98456.56
2022-10-19T05:18:50.433Z,98466.56
2022-10-19T05:22:54.287Z,98460.13
2022-10-19T05:26:57.328Z,98466.03
2022-10-19T05:31:07.927Z,98466.28
2022-10-19T05:35:12.227Z,98458.22
2022-10-19T05:39:17.745Z,98464.97
2022-10-19T05:43:32.895Z,98465.59
2022-10-19T05:47:36.873Z,98470.50
2022-10-19T05:51:42.227Z,98465.88
2022-10-19T05:55:45.312Z,98457.97
2022-10-19T05:59:48.782Z,98464.50
2022-10-19T06:03:54.626Z,98465.78
2022-10-19T06:07:58.956Z,98475.63
2022-10-19T06:12:02.445Z,98487.44
2022-10-19T06:16:10.156Z,98489.88
2022-10-19T06:20:13.615Z,98487.06
2022-10-19T06:24:18.527Z,98494.63
2022-10-19T06:28:22.009Z,98500.50
2022-10-19T06:32:25.477Z,98498.50
2022-10-19T06:36:30.653Z,98496.72
2022-10-19T06:40:36.581Z,98504.31
2022-10-19T06:44:39.940Z,98508.69
2022-10-19T06:48:42.914Z,98501.53
2022-10-19T06:52:46.351Z,98510.78
2022-10-19T06:56:51.216Z,98508.28
2022-10-19T07:00:58.407Z,98509.66
2022-10-19T07:05:06.977Z,98515.63
2022-10-19T07:09:11.285Z,98519.00
2022-10-19T07:13:15.914Z,98507.34
2022-10-19T07:17:19.615Z,98514.78
2022-10-19T07:21:24.460Z,98518.56
2022-10-19T07:25:27.931Z,98515.88
2022-10-19T07:29:32.542Z,98526.97
2022-10-19T07:33:36.202Z,98523.44
2022-10-19T07:37:39.208Z,98528.88
2022-10-19T07:41:42.299Z,98541.56
2022-10-19T07:45:47.150Z,98542.81
2022-10-19T07:49:50.521Z,98537.91
2022-10-19T07:53:53.763Z,98530.13
2022-10-19T07:58:01.967Z,98530.53
2022-10-19T08:02:08.146Z,98530.06
2022-10-19T08:06:14.018Z,98529.25
2022-10-19T08:10:17.725Z,98522.59
2022-10-19T08:14:21.131Z,98526.34
2022-10-19T08:18:26.057Z,98520.59
2022-10-19T08:22:29.116Z,98537.38
2022-10-19T08:26:34.474Z,98535.47
2022-10-19T08:30:38.437Z,98535.59
2022-10-19T08:34:43.688Z,98532.03
2022-10-19T08:38:48.620Z,98535.31
2022-10-19T08:42:59.856Z,98532.31
2022-10-19T08:47:13.820Z,98524.25
2022-10-19T08:51:19.128Z,98521.22
2022-10-19T08:55:30.642Z,98518.38
2022-10-19T08:59:39.822Z,98528.16
2022-10-19T09:03:55.431Z,98525.69
2022-10-19T09:08:01.667Z,98520.63
2022-10-19T09:12:08.134Z,98529.78
2022-10-19T09:16:14.493Z,98533.22
2022-10-19T09:20:21.059Z,98536.72
2022-10-19T09:24:33.719Z,98536.31
2022-10-19T09:28:42.472Z,98547.34
2022-10-19T09:32:45.618Z,98544.88
2022-10-19T09:36:54.681Z,98534.44
2022-10-19T09:41:00.535Z,98538.03
2022-10-19T09:45:16.463Z,98545.53
2022-10-19T09:49:21.060Z,98540.44
2022-10-19T09:53:24.768Z,98537.75
2022-10-19T09:57:29.597Z,98541.25
2022-10-19T10:01:41.691Z,98532.50
2022-10-19T10:05:49.638Z,98529.63
2022-10-19T10:09:54.606Z,98533.94
2022-10-19T10:14:03.958Z,98530.63
2022-10-19T10:18:17.701Z,98523.81
2022-10-19T10:22:28.636Z,98529.06
2022-10-19T10:26:33.891Z,98522.63
2022-10-19T10:30:39.045Z,98516.97
2022-10-19T10:34:51.855Z,98513.06
2022-10-19T10:43:18.747Z,98500.94
2022-10-19T10:47:23.801Z,98487.31
2022-10-19T10:51:34.650Z,98485.91
2022-10-19T10:55:38.248Z,98496.63
2022-10-19T10:59:57.468Z,98487.16
2022-10-19T11:04:08.856Z,98482.31
2022-10-19T11:08:20.961Z,98478.97
2022-10-19T11:12:36.359Z,98466.81
2022-10-19T11:16:48.019Z,98470.31
2022-10-19T11:21:01.958Z,98465.25
2022-10-19T11:25:21.215Z,98458.84
2022-10-19T11:29:48.828Z,98450.16
2022-10-19T11:34:02.577Z,98447.34
2022-10-19T11:38:30.124Z,98446.63
2022-10-19T11:42:49.284Z,98435.72
2022-10-19T11:47:09.980Z,98424.63
2022-10-19T11:51:21.618Z,98421.63
2022-10-19T11:55:37.070Z,98414.78
2022-10-19T12:00:00.172Z,98419.88
2022-10-19T12:04:36.764Z,98408.38
2022-10-19T12:08:59.316Z,98399.44
2022-10-19T12:13:07.868Z,98395.16
2022-10-19T12:21:40.905Z,98383.22
2022-10-19T12:25:46.162Z,98370.38
2022-10-19T12:29:51.322Z,98370.03
2022-10-19T12:34:02.432Z,98375.69
2022-10-19T12:38:10.553Z,98361.47
2022-10-19T12:42:21.605Z,98349.06
2022-10-19T12:46:37.300Z,98355.81
2022-10-19T12:51:03.916Z,98345.59
2022-10-19T12:55:28.021Z,98336.91
2022-10-19T12:59:34.214Z,98327.75
2022-10-19T13:03:42.331Z,98328.78
2022-10-19T13:12:36.885Z,98326.38
2022-10-19T13:16:58.848Z,98322.56
2022-10-19T13:21:03.896Z,98310.94
2022-10-19T13:25:31.219Z,98312.09
2022-10-19T13:29:45.195Z,98331.16
2022-10-19T13:33:56.631Z,98319.19
2022-10-19T13:38:26.915Z,98324.44
2022-10-19T13:42:30.643Z,98313.25
2022-10-19T13:46:50.330Z,98325.66
2022-10-19T13:50:56.999Z,98311.06
2022-10-19T13:55:34.293Z,98312.25
2022-10-19T13:59:59.721Z,98310.97
2022-10-19T14:04:26.708Z,98312.47
2022-10-19T14:09:05.926Z,98303.75
2022-10-19T14:13:16.391Z,98297.19
2022-10-19T14:17:21.859Z,98297.97
2022-10-19T14:21:33.649Z,98300.53
2022-10-19T14:25:36.752Z,98295.31
2022-10-19T14:29:47.908Z,98296.13
2022-10-19T14:33:54.408Z,98293.72
2022-10-19T14:37:58.640Z,98291.75
2022-10-19T14:42:06.219Z,98285.22
2022-10-19T14:46:15.920Z,98289.50
2022-10-19T14:50:19.612Z,98282.47
2022-10-19T14:54:30.774Z,98280.75
2022-10-19T14:58:40.993Z,98276.19
2022-10-19T15:02:49.202Z,98274.81
2022-10-19T15:06:53.038Z,98273.81
2022-10-19T15:10:56.680Z,98277.38
2022-10-19T15:14:59.921Z,98274.41
2022-10-19T15:19:27.769Z,98275.50
2022-10-19T15:23:42.396Z,98273.31
2022-10-19T15:27:47.781Z,98265.94
2022-10-19T15:31:52.994Z,98271.28
2022-10-19T15:36:07.331Z,98283.50
2022-10-19T15:40:13.753Z,98284.78
2022-10-19T15:44:33.963Z,98281.00
2022-10-19T15:48:51.213Z,98289.81
2022-10-19T15:53:00.723Z,98286.38
2022-10-19T15:57:03.696Z,98284.69
2022-10-19T16:01:13.310Z,98288.63
2022-10-19T16:05:16.897Z,98287.44
2022-10-19T16:09:24.476Z,98286.63
2022-10-19T16:13:27.651Z,98291.00
2022-10-19T16:17:31.300Z,98294.59
2022-10-19T16:21:36.595Z,98286.13
2022-10-19T16:25:41.745Z,98299.84
2022-10-19T16:29:45.914Z,98306.19
2022-10-19T16:33:49.708Z,98306.88
2022-10-19T16:42:19.073Z,98305.53
2022-10-19T16:46:23.118Z,98313.44
2022-10-19T16:50:26.691Z,98321.16
2022-10-19T16:54:32.170Z,98326.84
2022-10-19T16:58:37.669Z,98328.94
2022-10-19T17:02:43.186Z,98326.63
2022-10-19T17:06:50.373Z,98332.53
2022-10-19T17:10:54.886Z,98325.06
2022-10-19T17:15:29.964Z,98337.88
2022-10-19T17:19:23.300Z,98349.03
2022-10-19T17:23:26.859Z,98350.50
2022-10-19T17:27:32.919Z,98348.28
2022-10-19T17:31:38.150Z,98361.88
2022-10-19T17:35:41.868Z,98371.19
2022-10-19T17:39:44.933Z,98369.97
2022-10-19T17:43:52.340Z,98366.41
2022-10-19T17:47:58.722Z,98372.53
2022-10-19T17:52:02.470Z,98373.41
2022-10-19T17:56:09.182Z,98363.75
2022-10-19T18:04:17.015Z,98372.38
2022-10-19T18:08:20.811Z,98378.75
2022-10-19T18:12:24.693Z,98370.59
2022-10-19T18:16:30.745Z,98387.38
2022-10-19T18:20:36.251Z,98390.34
2022-10-19T18:24:41.449Z,98400.00
2022-10-19T18:28:45.842Z,98400.19
2022-10-19T18:32:51.234Z,98398.56
2022-10-19T18:36:57.658Z,98402.16
2022-10-19T18:41:06.124Z,98397.28
2022-10-19T18:45:12.817Z,98395.97
2022-10-19T18:49:19.370Z,98404.84
2022-10-19T18:53:25.060Z,98407.63
2022-10-19T18:57:31.724Z,98408.31
2022-10-19T19:01:35.884Z,98411.78
2022-10-19T19:05:39.755Z,98419.38
2022-10-19T19:09:44.734Z,98406.59
2022-10-19T19:13:49.898Z,98409.56
2022-10-19T19:17:57.135Z,98419.72
2022-10-19T19:22:07.876Z,98410.38
2022-10-19T19:26:14.748Z,98421.34
2022-10-19T19:30:18.769Z,98420.38
2022-10-19T19:34:22.707Z,98416.09
2022-10-19T19:38:26.531Z,98425.63
2022-10-19T19:42:32.044Z,98427.94
2022-10-19T19:46:36.632Z,98430.22
2022-10-19T19:50:40.499Z,98432.91
2022-10-19T19:54:44.318Z,98431.97
2022-10-19T19:58:49.167Z,98432.81
2022-10-19T20:02:56.806Z,98433.50
2022-10-19T20:06:59.964Z,98444.31
2022-10-19T20:11:05.271Z,98439.72
2022-10-19T20:15:11.300Z,98453.63
2022-10-19T20:19:15.470Z,98454.09
2022-10-19T20:23:19.015Z,98451.59
2022-10-19T20:27:22.148Z,98461.38
2022-10-19T20:35:31.813Z,98459.69
2022-10-19T20:39:35.411Z,98463.59
2022-10-19T20:43:39.301Z,98464.56
2022-10-19T20:47:44.371Z,98467.19
2022-10-19T20:51:47.827Z,98468.84
2022-10-19T20:55:51.420Z,98474.09
2022-10-19T20:59:54.666Z,98466.22
2022-10-19T21:04:02.140Z,98479.31
2022-10-19T21:08:05.488Z,98474.25
2022-10-19T21:12:09.025Z,98477.66
2022-10-19T21:16:13.243Z,98478.78
2022-10-19T21:20:18.534Z,98472.72
2022-10-19T21:24:23.660Z,98471.72
2022-10-19T21:28:27.240Z,98479.25
2022-10-19T21:32:30.262Z,98478.63
2022-10-19T21:36:34.678Z,98488.25
2022-10-19T21:40:38.294Z,98476.97
2022-10-19T21:44:41.793Z,98475.31
2022-10-19T21:48:45.481Z,98475.31
2022-10-19T21:52:50.296Z,98487.25
2022-10-19T21:56:55.853Z,98481.00
2022-10-19T22:01:05.369Z,98480.00
2022-10-19T22:05:10.497Z,98468.81
2022-10-19T22:09:17.796Z,98483.25
2022-10-19T22:13:21.210Z,98490.00
2022-10-19T22:17:24.853Z,98484.66
2022-10-19T22:21:29.643Z,98482.56
2022-10-19T22:25:35.952Z,98480.81
2022-10-19T22:29:39.480Z,98479.41
2022-10-19T22:33:43.058Z,98465.34
2022-10-19T22:37:46.366Z,98478.84
2022-10-19T22:41:51.139Z,98462.84
2022-10-19T22:45:54.623Z,98452.81
2022-10-19T22:49:57.713Z,98453.81
2022-10-19T22:54:01.244Z,98460.22
2022-10-19T22:58:06.740Z,98461.72
2022-10-19T23:02:09.762Z,98467.16
2022-10-19T23:06:15.545Z,98457.38
2022-10-19T23:10:19.506Z,98443.66
2022-10-19T23:14:24.080Z,98444.75
2022-10-19T23:18:27.683Z,98439.34
2022-10-19T23:22:31.097Z,98434.56
2022-10-19T23:26:34.223Z,98426.34
2022-10-19T23:30:40.690Z,98430.31
2022-10-19T23:34:47.442Z,98431.44
2022-10-19T23:38:53.003Z,98436.66
2022-10-19T23:42:56.541Z,98429.78
2022-10-19T23:47:01.488Z,98434.69
2022-10-19T23:51:06.624Z,98433.88
2022-10-19T23:55:10.844Z,98416.72
2022-10-19T23:59:14.224Z,98408.88
